createdAt,value
2018-03-21T00:00:37.915Z,3.10
2018-03-21T00:01:37.865Z,2.80
2018-03-21T00:02:37.820Z,3.40
2018-03-21T00:03:37.768Z,2.90
2018-03-21T00:04:37.714Z,2.90
2018-03-21T00:05:37.664Z,3.30
2018-03-21T00:06:37.613Z,3.00
2018-03-21T00:07:37.563Z,2.80
2018-03-21T00:08:37.513Z,3.10
2018-03-21T00:09:37.467Z,3.10
2018-03-21T00:10:37.415Z,3.30
2018-03-21T00:11:37.362Z,2.90
2018-03-21T00:12:37.317Z,2.90
2018-03-21T00:13:37.262Z,2.90
2018-03-21T00:14:37.211Z,2.80
2018-03-21T00:15:37.204Z,2.80
2018-03-21T00:16:37.111Z,3.20
2018-03-21T00:17:37.064Z,3.30
2018-03-21T00:18:37.009Z,3.00
2018-03-21T00:19:36.960Z,3.20
2018-03-21T00:20:36.910Z,3.00
2018-03-21T00:21:36.860Z,3.40
2018-03-21T00:22:36.808Z,3.30
2018-03-21T00:23:36.760Z,3.20
2018-03-21T00:24:36.709Z,3.40
2018-03-21T00:25:36.659Z,3.40
2018-03-21T00:26:36.608Z,3.40
2018-03-21T00:27:36.558Z,3.40
2018-03-21T00:28:36.507Z,3.50
2018-03-21T00:29:36.462Z,3.10
2018-03-21T00:30:36.406Z,3.30
2018-03-21T00:31:36.359Z,3.10
2018-03-21T00:32:36.310Z,3.50
2018-03-21T00:33:36.256Z,3.40
2018-03-21T00:34:36.212Z,3.60
2018-03-21T00:35:36.155Z,3.50
2018-03-21T00:36:36.105Z,3.30
2018-03-21T00:37:36.055Z,3.30
2018-03-21T00:38:36.003Z,3.80
2018-03-21T00:39:35.952Z,3.70
2018-03-21T00:40:35.907Z,3.30
2018-03-21T00:41:35.855Z,3.70
2018-03-21T00:42:35.803Z,3.80
2018-03-21T00:43:35.753Z,3.60
2018-03-21T00:44:35.700Z,3.90
2018-03-21T00:45:35.663Z,3.40
2018-03-21T00:46:35.603Z,3.80
2018-03-21T00:47:35.565Z,3.70
2018-03-21T00:48:35.502Z,3.50
2018-03-21T00:49:35.461Z,3.80
2018-03-21T00:50:35.403Z,4.20
2018-03-21T00:51:35.347Z,3.50
2018-03-21T00:52:35.301Z,3.80
2018-03-21T00:53:35.247Z,3.50
2018-03-21T00:54:35.198Z,3.80
2018-03-21T00:55:35.145Z,3.20
2018-03-21T00:56:35.094Z,3.70
2018-03-21T00:57:35.046Z,3.30
2018-03-21T00:58:34.992Z,3.40
2018-03-21T00:59:34.951Z,3.40
2018-03-21T01:00:34.893Z,3.80
2018-03-21T01:01:34.843Z,3.50
2018-03-21T01:02:34.791Z,3.90
2018-03-21T01:03:34.740Z,3.10
2018-03-21T01:04:34.690Z,3.50
2018-03-21T01:05:34.641Z,3.40
2018-03-21T01:06:34.588Z,3.50
2018-03-21T01:07:34.542Z,3.20
2018-03-21T01:08:34.492Z,3.20
2018-03-21T01:09:34.440Z,3.70
2018-03-21T01:10:34.388Z,3.50
2018-03-21T01:11:34.338Z,3.60
2018-03-21T01:12:34.286Z,3.40
2018-03-21T01:13:34.237Z,3.30
2018-03-21T01:14:34.185Z,3.20
2018-03-21T01:15:34.140Z,3.60
2018-03-21T01:16:34.085Z,3.50
2018-03-21T01:17:34.038Z,3.10
2018-03-21T01:18:33.986Z,2.90
2018-03-21T01:19:33.939Z,3.10
2018-03-21T01:20:33.882Z,2.90
2018-03-21T01:21:33.833Z,2.60
2018-03-21T01:22:33.782Z,3.40
2018-03-21T01:23:33.728Z,3.50
2018-03-21T01:24:33.679Z,3.40
2018-03-21T01:25:33.629Z,3.10
2018-03-21T01:26:33.578Z,3.60
2018-03-21T01:27:33.525Z,3.00
2018-03-21T01:28:33.480Z,3.50
2018-03-21T01:29:33.424Z,3.80
2018-03-21T01:30:33.377Z,3.10
2018-03-21T01:31:33.321Z,2.90
2018-03-21T01:32:33.273Z,3.60
2018-03-21T01:33:33.226Z,3.40
2018-03-21T01:34:33.169Z,3.30
2018-03-21T01:35:33.120Z,2.70
2018-03-21T01:36:33.077Z,3.60
2018-03-21T01:37:33.026Z,3.00
2018-03-21T01:38:32.969Z,3.50
2018-03-21T01:39:32.920Z,3.10
2018-03-21T01:40:32.865Z,3.30
2018-03-21T01:41:32.820Z,3.40
2018-03-21T01:42:32.763Z,3.30
2018-03-21T01:43:32.713Z,3.40
2018-03-21T01:44:32.661Z,3.30
2018-03-21T01:45:32.612Z,4.00
2018-03-21T01:46:32.559Z,3.80
2018-03-21T01:47:32.516Z,4.10
2018-03-21T01:48:32.459Z,4.00
2018-03-21T01:49:32.411Z,4.70
2018-03-21T01:50:32.359Z,4.90
2018-03-21T01:51:32.306Z,4.40
2018-03-21T01:52:32.257Z,4.70
2018-03-21T01:53:32.207Z,4.30
2018-03-21T01:54:32.157Z,4.80
2018-03-21T01:55:32.104Z,4.70
2018-03-21T01:56:32.055Z,4.40
2018-03-21T01:57:32.002Z,4.80
2018-03-21T01:58:31.950Z,5.00
2018-03-21T01:59:31.898Z,4.50
2018-03-21T02:00:31.859Z,4.20
2018-03-21T02:01:31.808Z,4.50
2018-03-21T02:02:31.760Z,4.90
2018-03-21T02:03:31.698Z,4.90
2018-03-21T02:04:31.647Z,4.40
2018-03-21T02:05:31.597Z,4.50
2018-03-21T02:06:31.547Z,4.40
2018-03-21T02:07:31.498Z,4.60
2018-03-21T02:08:31.440Z,4.50
2018-03-21T02:09:31.394Z,4.80
2018-03-21T02:10:31.340Z,4.50
2018-03-21T02:11:31.289Z,5.40
2018-03-21T02:12:31.239Z,9.10
2018-03-21T02:13:31.189Z,8.90
2018-03-21T02:14:31.136Z,10.50
2018-03-21T02:15:31.085Z,15.60
2018-03-21T02:16:31.034Z,14.10
2018-03-21T02:17:30.988Z,15.60
2018-03-21T02:18:30.931Z,13.70
2018-03-21T02:19:30.883Z,13.20
2018-03-21T02:20:30.830Z,11.00
2018-03-21T02:21:30.781Z,7.30
2018-03-21T02:22:30.727Z,8.00
2018-03-21T02:23:30.678Z,8.00
2018-03-21T02:24:30.624Z,6.30
2018-03-21T02:25:30.573Z,6.50
2018-03-21T02:26:30.524Z,5.90
2018-03-21T02:27:30.473Z,5.70
2018-03-21T02:28:30.423Z,5.30
2018-03-21T02:29:30.372Z,5.00
2018-03-21T02:30:30.329Z,5.70
2018-03-21T02:31:30.275Z,5.60
2018-03-21T02:32:30.219Z,5.10
2018-03-21T02:33:30.171Z,5.30
2018-03-21T02:34:30.114Z,5.80
2018-03-21T02:35:30.064Z,5.60
2018-03-21T02:36:30.012Z,5.70
2018-03-21T02:37:29.968Z,5.60
2018-03-21T02:38:29.910Z,6.00
2018-03-21T02:39:29.861Z,5.60
2018-03-21T02:40:29.811Z,5.90
2018-03-21T02:41:29.760Z,5.40
2018-03-21T02:42:29.710Z,5.80
2018-03-21T02:43:29.658Z,5.40
2018-03-21T02:44:29.603Z,5.60
2018-03-21T02:45:29.557Z,5.00
2018-03-21T02:46:29.502Z,5.50
2018-03-21T02:47:29.451Z,6.00
2018-03-21T02:48:29.400Z,5.60
2018-03-21T02:49:29.349Z,6.10
2018-03-21T02:50:29.301Z,6.40
2018-03-21T02:51:29.247Z,6.00
2018-03-21T02:52:29.197Z,6.60
2018-03-21T02:53:29.151Z,6.90
2018-03-21T02:54:29.092Z,6.60
2018-03-21T02:55:29.043Z,6.70
2018-03-21T02:56:28.990Z,6.20
2018-03-21T02:57:28.940Z,6.50
2018-03-21T02:58:28.895Z,6.20
2018-03-21T02:59:28.840Z,6.30
2018-03-21T03:00:28.788Z,6.60
2018-03-21T03:01:28.737Z,5.50
2018-03-21T03:02:28.683Z,5.40
2018-03-21T03:03:28.634Z,5.50
2018-03-21T03:04:28.592Z,5.70
2018-03-21T03:05:28.529Z,5.10
2018-03-21T03:06:28.490Z,5.10
2018-03-21T03:07:28.429Z,4.90
2018-03-21T03:08:28.394Z,5.20
2018-03-21T03:09:28.353Z,5.20
2018-03-21T03:10:28.274Z,5.10
2018-03-21T03:11:28.220Z,5.70
2018-03-21T03:12:28.183Z,5.70
2018-03-21T03:13:28.153Z,6.00
2018-03-21T03:14:28.075Z,5.70
2018-03-21T03:15:28.017Z,6.50
2018-03-21T03:16:27.965Z,6.80
2018-03-21T03:17:27.914Z,6.50
2018-03-21T03:18:27.861Z,7.10
2018-03-21T03:19:27.821Z,6.80
2018-03-21T03:20:27.759Z,6.70
2018-03-21T03:21:27.709Z,7.90
2018-03-21T03:22:27.656Z,7.60
2018-03-21T03:23:27.607Z,7.20
2018-03-21T03:24:27.555Z,6.90
2018-03-21T03:25:27.503Z,7.10
2018-03-21T03:26:27.454Z,7.30
2018-03-21T03:27:27.400Z,7.40
2018-03-21T03:28:27.354Z,7.40
2018-03-21T03:29:27.320Z,7.40
2018-03-21T03:30:27.249Z,7.30
2018-03-21T03:31:27.198Z,7.70
2018-03-21T03:32:27.144Z,7.50
2018-03-21T03:33:27.092Z,7.90
2018-03-21T03:34:27.039Z,7.40
2018-03-21T03:35:27.000Z,8.00
2018-03-21T03:36:26.947Z,7.60
2018-03-21T03:37:26.887Z,7.40
2018-03-21T03:38:26.836Z,7.40
2018-03-21T03:39:26.781Z,8.20
2018-03-21T03:40:26.733Z,8.10
2018-03-21T03:41:26.683Z,9.90
2018-03-21T03:42:26.633Z,11.50
2018-03-21T03:43:26.583Z,11.30
2018-03-21T03:44:26.527Z,9.00
2018-03-21T03:45:26.477Z,8.70
2018-03-21T03:46:26.428Z,7.80
2018-03-21T03:47:29.472Z,7.60
2018-03-21T03:48:26.320Z,7.30
2018-03-21T03:49:26.272Z,6.90
2018-03-21T03:50:26.218Z,6.60
2018-03-21T03:51:26.164Z,6.40
2018-03-21T03:52:26.120Z,6.90
2018-03-21T03:53:26.063Z,7.50
2018-03-21T03:54:26.014Z,6.80
2018-03-21T03:55:25.964Z,6.80
2018-03-21T03:56:25.913Z,7.00
2018-03-21T03:57:25.859Z,7.40
2018-03-21T03:58:25.808Z,6.60
2018-03-21T03:59:25.757Z,6.50
2018-03-21T04:00:25.706Z,6.30
2018-03-21T04:01:25.651Z,6.20
2018-03-21T04:02:25.608Z,6.40
2018-03-21T04:03:25.549Z,6.10
2018-03-21T04:04:25.519Z,6.20
2018-03-21T04:05:25.445Z,5.70
2018-03-21T04:06:25.395Z,6.40
2018-03-21T04:07:25.346Z,6.10
2018-03-21T04:08:25.294Z,6.50
2018-03-21T04:09:25.240Z,6.10
2018-03-21T04:10:25.189Z,5.60
2018-03-21T04:11:25.140Z,6.00
2018-03-21T04:12:25.087Z,5.90
2018-03-21T04:13:25.033Z,6.10
2018-03-21T04:14:24.982Z,6.40
2018-03-21T04:15:24.931Z,6.00
2018-03-21T04:16:24.879Z,6.10
2018-03-21T04:17:24.836Z,6.30
2018-03-21T04:18:24.777Z,6.20
2018-03-21T04:19:24.731Z,6.20
2018-03-21T04:20:24.674Z,6.20
2018-03-21T04:21:24.621Z,6.00
2018-03-21T04:22:24.573Z,5.80
2018-03-21T04:23:24.639Z,5.90
2018-03-21T04:24:24.467Z,5.80
2018-03-21T04:25:24.419Z,5.60
2018-03-21T04:26:24.365Z,5.70
2018-03-21T04:27:24.313Z,4.90
2018-03-21T04:28:24.261Z,5.60
2018-03-21T04:29:24.211Z,5.50
2018-03-21T04:30:24.161Z,6.00
2018-03-21T04:31:24.105Z,5.60
2018-03-21T04:32:24.056Z,5.60
2018-03-21T04:33:24.004Z,5.40
2018-03-21T04:34:23.954Z,5.50
2018-03-21T04:35:23.900Z,6.30
2018-03-21T04:36:23.852Z,6.00
2018-03-21T04:37:23.799Z,5.50
2018-03-21T04:38:23.745Z,5.70
2018-03-21T04:39:23.699Z,6.30
2018-03-21T04:40:23.646Z,6.10
2018-03-21T04:41:23.597Z,6.40
2018-03-21T04:42:23.539Z,7.00
2018-03-21T04:43:23.502Z,6.30
2018-03-21T04:44:23.438Z,6.10
2018-03-21T04:45:23.386Z,6.20
2018-03-21T04:46:23.334Z,7.20
2018-03-21T04:47:23.293Z,6.90
2018-03-21T04:48:23.236Z,7.40
2018-03-21T04:49:23.180Z,7.90
2018-03-21T04:50:23.146Z,9.50
2018-03-21T04:51:23.075Z,10.00
2018-03-21T04:52:23.024Z,10.40
2018-03-21T04:53:22.974Z,10.20
2018-03-21T04:54:22.936Z,10.10
2018-03-21T04:55:22.878Z,10.30
2018-03-21T04:56:22.820Z,10.90
2018-03-21T04:57:22.765Z,11.40
2018-03-21T04:58:22.714Z,11.10
2018-03-21T04:59:22.662Z,11.50
2018-03-21T05:00:22.613Z,12.70
2018-03-21T05:01:22.561Z,13.10
2018-03-21T05:02:22.511Z,12.30
2018-03-21T05:03:22.458Z,12.50
2018-03-21T05:04:22.412Z,13.20
2018-03-21T05:05:22.358Z,13.30
2018-03-21T05:06:22.302Z,14.20
2018-03-21T05:07:22.253Z,15.00
2018-03-21T05:08:22.231Z,14.00
2018-03-21T05:09:22.154Z,14.40
2018-03-21T05:10:22.101Z,14.00
2018-03-21T05:11:22.049Z,14.80
2018-03-21T05:12:22.000Z,14.70
2018-03-21T05:13:21.947Z,14.10
2018-03-21T05:14:21.896Z,13.70
2018-03-21T05:15:21.851Z,12.80
2018-03-21T05:16:21.792Z,13.30
2018-03-21T05:17:21.740Z,14.30
2018-03-21T05:18:21.698Z,12.90
2018-03-21T05:19:21.655Z,13.90
2018-03-21T05:20:21.592Z,14.30
2018-03-21T05:21:21.537Z,13.80
2018-03-21T05:22:21.489Z,13.70
2018-03-21T05:23:21.432Z,15.80
2018-03-21T05:24:21.448Z,16.00
2018-03-21T05:25:21.335Z,16.20
2018-03-21T05:26:21.281Z,16.80
2018-03-21T05:27:21.234Z,15.50
2018-03-21T05:28:21.177Z,15.60
2018-03-21T05:29:21.128Z,14.70
2018-03-21T05:30:21.075Z,14.90
2018-03-21T05:31:21.025Z,14.90
2018-03-21T05:32:20.972Z,14.30
2018-03-21T05:33:20.924Z,14.30
2018-03-21T05:34:20.870Z,14.70
2018-03-21T05:35:20.820Z,13.90
2018-03-21T05:36:20.769Z,14.00
2018-03-21T05:37:20.718Z,14.30
2018-03-21T05:38:20.668Z,15.00
2018-03-21T05:39:20.617Z,14.90
2018-03-21T05:40:20.564Z,14.30
2018-03-21T05:41:20.530Z,14.90
2018-03-21T05:42:20.462Z,14.30
2018-03-21T05:43:20.409Z,14.90
2018-03-21T05:44:20.361Z,16.00
2018-03-21T05:45:20.313Z,16.80
2018-03-21T05:46:20.257Z,17.50
2018-03-21T05:47:20.209Z,17.90
2018-03-21T05:48:20.158Z,16.50
2018-03-21T05:49:20.104Z,17.90
2018-03-21T05:50:20.055Z,18.90
2018-03-21T05:51:20.004Z,19.70
2018-03-21T05:52:19.952Z,20.30
2018-03-21T05:53:19.903Z,20.90
2018-03-21T05:54:19.848Z,22.50
2018-03-21T05:55:19.804Z,23.30
2018-03-21T05:56:19.748Z,23.90
2018-03-21T05:57:19.698Z,23.90
2018-03-21T05:58:19.645Z,22.60
2018-03-21T05:59:19.596Z,22.90
2018-03-21T06:00:19.544Z,21.70
2018-03-21T06:01:19.493Z,21.30
2018-03-21T06:02:19.478Z,19.80
2018-03-21T06:03:19.391Z,18.90
2018-03-21T06:04:19.341Z,19.80
2018-03-21T06:05:19.292Z,19.60
2018-03-21T06:06:19.240Z,23.00
2018-03-21T06:07:19.186Z,22.90
2018-03-21T06:08:19.146Z,26.10
2018-03-21T06:09:19.088Z,26.20
2018-03-21T06:10:19.047Z,27.40
2018-03-21T06:11:19.020Z,32.00
2018-03-21T06:12:18.944Z,33.70
2018-03-21T06:13:18.885Z,34.20
2018-03-21T06:14:18.838Z,29.60
2018-03-21T06:15:18.786Z,27.30
2018-03-21T06:16:18.731Z,25.50
2018-03-21T06:17:18.684Z,23.60
2018-03-21T06:18:18.632Z,21.00
2018-03-21T06:19:18.582Z,19.10
2018-03-21T06:20:18.531Z,18.50
2018-03-21T06:21:18.479Z,19.70
2018-03-21T06:22:18.426Z,19.20
2018-03-21T06:23:18.380Z,18.90
2018-03-21T06:24:18.328Z,17.70
2018-03-21T06:25:18.280Z,19.00
2018-03-21T06:26:18.223Z,18.00
2018-03-21T06:27:18.180Z,17.20
2018-03-21T06:28:18.125Z,18.40
2018-03-21T06:29:18.074Z,18.90
2018-03-21T06:30:18.023Z,18.60
2018-03-21T06:31:17.976Z,18.40
2018-03-21T06:32:17.921Z,19.60
2018-03-21T06:33:17.878Z,19.90
2018-03-21T06:34:17.821Z,19.80
2018-03-21T06:35:17.772Z,18.10
2018-03-21T06:36:17.727Z,19.70
2018-03-21T06:37:17.669Z,20.20
2018-03-21T06:38:17.649Z,19.80
2018-03-21T06:39:17.571Z,20.00
2018-03-21T06:40:17.522Z,18.90
2018-03-21T06:41:17.471Z,18.80
2018-03-21T06:42:17.418Z,18.30
2018-03-21T06:43:17.420Z,18.70
2018-03-21T06:44:17.317Z,18.30
2018-03-21T06:45:17.268Z,19.10
2018-03-21T06:46:17.220Z,18.60
2018-03-21T06:47:17.166Z,18.40
2018-03-21T06:48:17.116Z,17.10
2018-03-21T06:49:17.069Z,17.70
2018-03-21T06:50:17.022Z,18.40
2018-03-21T06:51:16.969Z,18.10
2018-03-21T06:52:16.916Z,17.80
2018-03-21T06:53:16.869Z,16.60
2018-03-21T06:54:16.817Z,16.20
2018-03-21T06:55:16.768Z,16.70
2018-03-21T06:56:16.718Z,16.90
2018-03-21T06:57:16.666Z,17.00
2018-03-21T06:58:16.624Z,17.10
2018-03-21T06:59:16.567Z,16.90
2018-03-21T07:00:16.517Z,17.50
2018-03-21T07:01:16.469Z,16.60
2018-03-21T07:02:16.416Z,17.60
2018-03-21T07:03:16.368Z,17.20
2018-03-21T07:04:16.317Z,17.60
2018-03-21T07:05:16.268Z,17.50
2018-03-21T07:06:16.220Z,16.80
2018-03-21T07:07:16.175Z,17.10
2018-03-21T07:08:16.120Z,16.90
2018-03-21T07:09:16.069Z,17.10
2018-03-21T07:10:16.021Z,17.90
2018-03-21T07:11:15.969Z,16.90
2018-03-21T07:12:15.923Z,17.00
2018-03-21T07:13:15.871Z,17.30
2018-03-21T07:14:15.823Z,17.30
2018-03-21T07:15:15.775Z,17.70
2018-03-21T07:16:15.724Z,16.90
2018-03-21T07:17:15.673Z,17.10
2018-03-21T07:18:15.624Z,17.50
2018-03-21T07:19:15.576Z,17.00
2018-03-21T07:20:15.525Z,16.20
2018-03-21T07:21:15.486Z,16.90
2018-03-21T07:22:15.427Z,16.50
2018-03-21T07:23:15.380Z,17.20
2018-03-21T07:24:15.333Z,17.30
2018-03-21T07:25:15.280Z,16.90
2018-03-21T07:26:15.233Z,17.50
2018-03-21T07:27:15.177Z,17.90
2018-03-21T07:28:15.129Z,17.50
2018-03-21T07:29:15.079Z,16.20
2018-03-21T07:30:15.030Z,16.20
2018-03-21T07:31:14.986Z,17.10
2018-03-21T07:32:14.935Z,17.70
2018-03-21T07:33:14.880Z,18.30
2018-03-21T07:34:14.830Z,18.40
2018-03-21T07:35:14.781Z,18.90
2018-03-21T07:36:14.734Z,18.80
2018-03-21T07:37:14.688Z,18.10
2018-03-21T07:38:14.633Z,19.80
2018-03-21T07:39:14.585Z,19.80
2018-03-21T07:40:14.536Z,20.40
2018-03-21T07:41:14.487Z,22.20
2018-03-21T07:42:14.436Z,23.40
2018-03-21T07:43:14.386Z,23.30
2018-03-21T07:44:14.341Z,23.40
2018-03-21T07:45:14.289Z,22.20
2018-03-21T07:46:14.239Z,22.90
2018-03-21T07:47:14.191Z,24.20
2018-03-21T07:48:14.142Z,24.20
2018-03-21T07:49:14.095Z,24.50
2018-03-21T07:50:14.043Z,30.00
2018-03-21T07:51:13.994Z,29.70
2018-03-21T07:52:13.946Z,30.40
2018-03-21T07:53:13.895Z,32.00
2018-03-21T07:54:13.847Z,32.30
2018-03-21T07:55:13.798Z,31.60
2018-03-21T07:56:13.748Z,32.00
2018-03-21T07:57:13.705Z,31.50
2018-03-21T07:58:13.654Z,33.00
2018-03-21T07:59:13.604Z,32.30
2018-03-21T08:00:13.551Z,31.00
2018-03-21T08:01:13.503Z,30.00
2018-03-21T08:02:13.489Z,30.30
2018-03-21T08:03:13.407Z,32.80
2018-03-21T08:04:13.357Z,35.00
2018-03-21T08:05:13.307Z,35.40
2018-03-21T08:06:13.259Z,34.50
2018-03-21T08:07:13.208Z,34.50
2018-03-21T08:08:13.166Z,33.80
2018-03-21T08:09:13.115Z,37.80
2018-03-21T08:10:13.067Z,39.20
2018-03-21T08:11:13.014Z,40.40
2018-03-21T08:12:12.967Z,41.90
2018-03-21T08:13:12.917Z,41.10
2018-03-21T08:14:12.871Z,41.10
2018-03-21T08:15:12.820Z,42.20
2018-03-21T08:16:12.772Z,42.60
2018-03-21T08:17:12.721Z,45.00
2018-03-21T08:18:12.674Z,45.20
2018-03-21T08:19:12.624Z,46.70
2018-03-21T08:20:12.577Z,45.10
2018-03-21T08:21:12.527Z,44.80
2018-03-21T08:22:12.478Z,45.30
2018-03-21T08:23:12.430Z,47.10
2018-03-21T08:24:12.391Z,47.00
2018-03-21T08:25:12.337Z,47.40
2018-03-21T08:26:12.284Z,49.00
2018-03-21T08:27:12.236Z,48.10
2018-03-21T08:28:12.189Z,48.90
2018-03-21T08:29:12.142Z,51.60
2018-03-21T08:30:12.092Z,50.30
2018-03-21T08:31:12.042Z,49.70
2018-03-21T08:32:11.998Z,50.10
2018-03-21T08:33:11.945Z,51.60
2018-03-21T08:34:11.902Z,50.50
2018-03-21T08:35:11.847Z,49.90
2018-03-21T08:36:11.799Z,46.90
2018-03-21T08:37:11.752Z,46.00
2018-03-21T08:38:11.704Z,44.10
2018-03-21T08:39:11.655Z,44.90
2018-03-21T08:40:11.608Z,48.60
2018-03-21T08:41:11.570Z,50.00
2018-03-21T08:42:11.513Z,51.90
2018-03-21T08:43:11.462Z,52.00
2018-03-21T08:44:11.417Z,51.40
2018-03-21T08:45:11.368Z,54.40
2018-03-21T08:46:11.321Z,54.80
2018-03-21T08:47:11.276Z,59.60
2018-03-21T08:48:11.245Z,57.10
2018-03-21T08:49:11.179Z,56.30
2018-03-21T08:50:11.124Z,55.40
2018-03-21T08:51:11.077Z,53.90
2018-03-21T08:52:11.029Z,55.90
2018-03-21T08:53:10.979Z,52.20
2018-03-21T08:54:10.932Z,52.30
2018-03-21T08:55:10.884Z,52.90
2018-03-21T08:56:10.838Z,50.40
2018-03-21T08:57:10.788Z,48.00
2018-03-21T08:58:10.738Z,45.60
2018-03-21T08:59:10.690Z,46.10
2018-03-21T09:00:10.644Z,46.30
2018-03-21T09:01:10.596Z,43.80
2018-03-21T09:02:10.546Z,45.20
2018-03-21T09:03:10.496Z,43.90
2018-03-21T09:04:10.450Z,43.50
2018-03-21T09:05:10.401Z,42.40
2018-03-21T09:06:10.355Z,41.20
2018-03-21T09:07:10.308Z,48.00
2018-03-21T09:08:10.260Z,50.00
2018-03-21T09:09:10.209Z,50.60
2018-03-21T09:10:10.158Z,52.30
2018-03-21T09:11:10.113Z,54.30
2018-03-21T09:12:10.068Z,51.90
2018-03-21T09:13:10.018Z,52.60
2018-03-21T09:14:09.970Z,52.40
2018-03-21T09:15:09.921Z,51.30
2018-03-21T09:16:09.872Z,47.00
2018-03-21T09:17:09.822Z,43.60
2018-03-21T09:18:09.773Z,41.80
2018-03-21T09:19:09.733Z,38.70
2018-03-21T09:20:09.682Z,38.20
2018-03-21T09:21:09.632Z,38.60
2018-03-21T09:22:09.585Z,38.20
2018-03-21T09:23:09.533Z,37.80
2018-03-21T09:24:09.485Z,40.80
2018-03-21T09:25:09.437Z,41.20
2018-03-21T09:26:09.408Z,41.10
2018-03-21T09:27:09.344Z,45.00
2018-03-21T09:28:09.295Z,45.60
2018-03-21T09:29:09.245Z,47.60
2018-03-21T09:30:09.197Z,49.80
2018-03-21T09:31:09.150Z,49.60
2018-03-21T09:32:09.100Z,52.60
2018-03-21T09:33:09.051Z,52.30
2018-03-21T09:34:09.004Z,51.90
2018-03-21T09:35:08.954Z,53.50
2018-03-21T09:36:08.907Z,53.20
2018-03-21T09:37:08.865Z,51.20
2018-03-21T09:38:08.810Z,51.30
2018-03-21T09:39:08.778Z,53.90
2018-03-21T09:40:08.715Z,51.50
2018-03-21T09:41:08.670Z,51.60
2018-03-21T09:42:08.620Z,50.00
2018-03-21T09:43:08.572Z,51.50
2018-03-21T09:44:08.532Z,50.90
2018-03-21T09:45:08.474Z,50.60
2018-03-21T09:46:08.425Z,49.00
2018-03-21T09:47:08.380Z,50.00
2018-03-21T09:48:08.332Z,51.00
2018-03-21T09:49:08.283Z,49.40
2018-03-21T09:50:08.235Z,49.20
2018-03-21T09:51:08.184Z,50.20
2018-03-21T09:52:08.138Z,50.40
2018-03-21T09:53:08.088Z,49.00
2018-03-21T09:54:08.039Z,48.30
2018-03-21T09:55:07.992Z,48.50
2018-03-21T09:56:07.944Z,49.40
2018-03-21T09:57:07.898Z,49.70
2018-03-21T09:58:07.846Z,49.70
2018-03-21T09:59:07.800Z,49.50
2018-03-21T10:00:07.752Z,50.30
2018-03-21T10:01:07.732Z,50.60
2018-03-21T10:02:07.657Z,50.40
2018-03-21T10:03:07.609Z,51.10
2018-03-21T10:04:07.559Z,49.60
2018-03-21T10:05:07.513Z,48.60
2018-03-21T10:06:07.464Z,49.20
2018-03-21T10:07:07.421Z,48.80
2018-03-21T10:08:07.370Z,50.10
2018-03-21T10:09:07.323Z,48.60
2018-03-21T10:10:07.277Z,44.30
2018-03-21T10:11:07.227Z,42.50
2018-03-21T10:12:07.178Z,39.80
2018-03-21T10:13:07.129Z,38.50
2018-03-21T10:14:07.082Z,35.50
2018-03-21T10:15:07.036Z,35.80
2018-03-21T10:16:07.001Z,35.90
2018-03-21T10:17:06.947Z,37.20
2018-03-21T10:18:06.895Z,40.30
2018-03-21T10:19:06.844Z,39.30
2018-03-21T10:20:06.801Z,40.50
2018-03-21T10:21:06.754Z,39.60
2018-03-21T10:22:06.702Z,44.80
2018-03-21T10:23:06.656Z,48.20
2018-03-21T10:24:06.609Z,48.50
2018-03-21T10:25:06.558Z,50.20
2018-03-21T10:26:06.509Z,46.80
2018-03-21T10:27:06.463Z,43.40
2018-03-21T10:28:06.416Z,43.60
2018-03-21T10:29:06.373Z,43.90
2018-03-21T10:30:06.322Z,44.60
2018-03-21T10:31:06.272Z,47.00
2018-03-21T10:32:06.224Z,49.00
2018-03-21T10:33:06.177Z,46.60
2018-03-21T10:34:06.141Z,47.60
2018-03-21T10:35:06.083Z,45.30
2018-03-21T10:36:06.037Z,45.30
2018-03-21T10:37:05.988Z,46.00
2018-03-21T10:38:05.940Z,44.60
2018-03-21T10:39:05.894Z,42.30
2018-03-21T10:40:05.851Z,39.80
2018-03-21T10:41:05.800Z,39.80
2018-03-21T10:42:05.753Z,41.30
2018-03-21T10:43:05.701Z,39.30
2018-03-21T10:44:05.653Z,38.10
2018-03-21T10:45:05.622Z,39.10
2018-03-21T10:46:05.562Z,35.60
2018-03-21T10:47:05.513Z,33.70
2018-03-21T10:48:05.466Z,33.80
2018-03-21T10:49:05.421Z,33.50
2018-03-21T10:50:05.370Z,32.80
2018-03-21T10:51:05.324Z,31.00
2018-03-21T10:52:05.282Z,33.80
2018-03-21T10:53:05.229Z,32.60
2018-03-21T10:54:05.204Z,34.30
2018-03-21T10:55:05.134Z,34.10
2018-03-21T10:56:05.088Z,33.00
2018-03-21T10:57:05.042Z,35.60
2018-03-21T10:58:04.997Z,32.20
2018-03-21T10:59:04.973Z,31.20
2018-03-21T11:00:04.902Z,31.00
2018-03-21T11:01:04.852Z,32.80
2018-03-21T11:02:04.814Z,33.20
2018-03-21T11:03:04.759Z,33.80
2018-03-21T11:04:04.711Z,34.00
2018-03-21T11:05:04.667Z,32.70
2018-03-21T11:06:04.616Z,34.00
2018-03-21T11:07:04.571Z,33.50
2018-03-21T11:08:04.536Z,36.10
2018-03-21T11:09:04.481Z,34.40
2018-03-21T11:10:04.431Z,36.00
2018-03-21T11:11:04.383Z,36.00
2018-03-21T11:12:04.338Z,33.90
2018-03-21T11:13:04.290Z,34.40
2018-03-21T11:14:04.244Z,34.20
2018-03-21T11:15:04.196Z,33.90
2018-03-21T11:16:04.149Z,34.50
2018-03-21T11:17:04.104Z,33.70
2018-03-21T11:18:04.057Z,34.70
2018-03-21T11:19:04.008Z,36.80
2018-03-21T11:20:03.961Z,39.10
2018-03-21T11:21:03.920Z,39.10
2018-03-21T11:22:03.871Z,40.90
2018-03-21T11:23:03.822Z,39.60
2018-03-21T11:24:03.779Z,37.90
2018-03-21T11:25:03.732Z,37.00
2018-03-21T11:26:03.681Z,36.50
2018-03-21T11:27:03.636Z,37.20
2018-03-21T11:28:03.591Z,35.90
2018-03-21T11:29:03.543Z,36.90
2018-03-21T11:30:03.494Z,35.50
2018-03-21T11:31:03.450Z,38.40
2018-03-21T11:32:03.400Z,37.60
2018-03-21T11:33:03.359Z,37.70
2018-03-21T11:34:03.314Z,37.50
2018-03-21T11:35:03.263Z,37.80
2018-03-21T11:36:03.218Z,35.70
2018-03-21T11:37:03.169Z,36.10
2018-03-21T11:38:03.119Z,36.10
2018-03-21T11:39:03.126Z,36.00
2018-03-21T11:40:03.032Z,36.60
2018-03-21T11:41:02.987Z,36.90
2018-03-21T11:42:02.935Z,35.00
2018-03-21T11:43:02.889Z,35.60
2018-03-21T11:44:02.842Z,35.10
2018-03-21T11:45:02.834Z,33.80
2018-03-21T11:46:02.748Z,30.10
2018-03-21T11:47:02.702Z,31.60
2018-03-21T11:48:02.659Z,29.80
2018-03-21T11:49:02.612Z,29.90
2018-03-21T11:50:02.563Z,29.60
2018-03-21T11:51:02.519Z,29.40
2018-03-21T11:52:02.475Z,29.70
2018-03-21T11:53:02.427Z,29.60
2018-03-21T11:54:02.378Z,30.20
2018-03-21T11:55:02.331Z,29.30
2018-03-21T11:56:02.288Z,26.50
2018-03-21T11:57:02.243Z,27.10
2018-03-21T11:58:02.193Z,27.40
2018-03-21T11:59:02.149Z,25.00
2018-03-21T12:00:02.100Z,23.60
2018-03-21T12:01:02.062Z,25.30
2018-03-21T12:02:02.009Z,26.70
2018-03-21T12:03:01.964Z,26.60
2018-03-21T12:04:01.920Z,25.70
2018-03-21T12:05:01.877Z,27.00
2018-03-21T12:06:01.828Z,28.50
2018-03-21T12:07:01.787Z,28.80
2018-03-21T12:08:01.737Z,28.60
2018-03-21T12:09:01.694Z,27.80
2018-03-21T12:10:01.693Z,28.70
2018-03-21T12:11:01.603Z,27.00
2018-03-21T12:12:01.559Z,27.10
2018-03-21T12:13:01.513Z,23.80
2018-03-21T12:14:01.467Z,24.00
2018-03-21T12:15:01.424Z,25.80
2018-03-21T12:16:01.379Z,24.40
2018-03-21T12:17:01.337Z,24.30
2018-03-21T12:18:01.293Z,24.40
2018-03-21T12:19:01.246Z,24.80
2018-03-21T12:20:01.204Z,24.30
2018-03-21T12:21:01.159Z,26.20
2018-03-21T12:22:01.118Z,27.00
2018-03-21T12:23:01.069Z,28.00
2018-03-21T12:24:01.025Z,27.60
2018-03-21T12:25:00.982Z,25.50
2018-03-21T12:26:00.939Z,27.70
2018-03-21T12:27:00.893Z,27.20
2018-03-21T12:28:00.848Z,28.40
2018-03-21T12:29:00.808Z,27.80
2018-03-21T12:30:00.764Z,28.50
2018-03-21T12:31:00.717Z,27.60
2018-03-21T12:32:00.674Z,27.60
2018-03-21T12:33:00.628Z,28.00
2018-03-21T12:34:00.583Z,27.50
2018-03-21T12:35:00.543Z,28.50
2018-03-21T12:36:00.497Z,28.10
2018-03-21T12:37:00.450Z,27.20
2018-03-21T12:38:00.406Z,24.30
2018-03-21T12:39:00.363Z,23.80
2018-03-21T12:40:00.319Z,23.70
2018-03-21T12:41:00.275Z,22.50
2018-03-21T12:42:00.229Z,23.10
2018-03-21T12:43:00.190Z,21.90
2018-03-21T12:44:00.147Z,22.30
2018-03-21T12:45:00.098Z,23.10
2018-03-21T12:46:00.056Z,22.00
2018-03-21T12:47:00.012Z,21.00
2018-03-21T12:47:59.969Z,20.80
2018-03-21T12:48:59.925Z,20.60
2018-03-21T12:49:59.919Z,21.10
2018-03-21T12:50:59.837Z,19.90
2018-03-21T12:51:59.805Z,20.10
2018-03-21T12:52:59.751Z,21.20
2018-03-21T12:53:59.706Z,21.00
2018-03-21T12:54:59.660Z,20.80
2018-03-21T12:55:59.708Z,21.00
2018-03-21T12:56:59.573Z,19.70
2018-03-21T12:57:59.527Z,19.60
2018-03-21T12:58:59.487Z,18.80
2018-03-21T12:59:59.441Z,21.20
2018-03-21T13:00:59.401Z,22.20